createdAt,value
2023-03-02T00:14:32.636Z,70.8
2023-03-02T00:34:32.466Z,72.7
2023-03-02T00:54:32.452Z,74.4
2023-03-02T01:14:32.429Z,75.3
2023-03-02T01:34:32.414Z,73.3
2023-03-02T01:54:32.388Z,72.1
2023-03-02T02:34:32.356Z,71.3
2023-03-02T02:54:32.318Z,72.3
2023-03-02T03:14:32.296Z,74.5
2023-03-02T03:34:32.286Z,73.7
2023-03-02T03:54:32.250Z,75.3
2023-03-02T04:14:32.238Z,75.6
2023-03-02T04:34:32.231Z,74.9
2023-03-02T04:54:32.214Z,74.3
2023-03-02T05:14:32.188Z,73.6
2023-03-02T05:34:32.158Z,74.3
2023-03-02T05:54:32.151Z,75.3
2023-03-02T06:14:32.135Z,76.2
2023-03-02T06:34:33.115Z,76.9
2023-03-02T06:54:32.080Z,77.2
2023-03-02T07:14:32.075Z,75
2023-03-02T07:34:32.046Z,72.8
2023-03-02T08:14:32.060Z,67.8
2023-03-02T08:34:31.975Z,63.7
2023-03-02T08:54:31.938Z,62.1
2023-03-02T09:14:31.936Z,59.5
2023-03-02T09:34:31.898Z,55.4
2023-03-02T09:54:31.877Z,52.3
2023-03-02T10:14:31.834Z,50.6
2023-03-02T10:34:31.843Z,48.8
2023-03-02T10:54:31.780Z,46.7
2023-03-02T11:14:31.748Z,44.6
2023-03-02T11:34:31.707Z,44.8
2023-03-02T12:14:31.647Z,43.4
2023-03-02T12:34:32.304Z,42.1
2023-03-02T12:54:31.582Z,42.6
2023-03-02T13:14:31.552Z,44.6
2023-03-02T13:34:31.520Z,43
2023-03-02T13:54:31.473Z,42.8
2023-03-02T14:14:31.469Z,43.8
2023-03-02T14:34:31.414Z,46.2
2023-03-02T14:54:31.353Z,47.4
2023-03-02T15:14:31.344Z,49.5
2023-03-02T15:34:31.304Z,50.6
2023-03-02T15:54:31.259Z,50.8
2023-03-02T16:14:31.225Z,51.4
2023-03-02T16:34:31.206Z,55.9
2023-03-02T16:54:31.162Z,61.5
2023-03-02T17:14:31.147Z,67.3
2023-03-02T17:34:31.116Z,69.2
2023-03-02T17:54:31.067Z,71.8
2023-03-02T18:14:31.043Z,76.5
2023-03-02T18:34:31.004Z,80.2
2023-03-02T18:54:31.030Z,83
2023-03-02T19:14:31.000Z,86
2023-03-02T20:14:33.933Z,92.1
2023-03-02T20:34:30.853Z,93
2023-03-02T20:54:30.838Z,93.7
2023-03-02T21:14:30.873Z,94.5
2023-03-02T21:54:30.806Z,95.2
2023-03-02T22:34:30.732Z,95.4
2023-03-02T22:54:30.731Z,95.4
2023-03-02T23:14:30.682Z,94.9
2023-03-02T23:34:30.670Z,94.8
2023-03-02T23:54:30.634Z,94.9
